createdAt,value
2022-09-23T00:01:07.530Z,6.10
2022-09-23T00:03:35.463Z,5.57
2022-09-23T00:06:05.042Z,4.80
2022-09-23T00:08:31.865Z,4.97
2022-09-23T00:11:08.075Z,5.13
2022-09-23T00:13:36.093Z,5.13
2022-09-23T00:16:08.203Z,5.20
2022-09-23T00:18:35.309Z,4.90
2022-09-23T00:21:07.083Z,5.28
2022-09-23T00:23:33.927Z,5.20
2022-09-23T00:26:02.591Z,6.50
2022-09-23T00:28:30.410Z,5.47
2022-09-23T00:31:02.491Z,4.90
2022-09-23T00:33:29.903Z,5.15
2022-09-23T00:36:04.877Z,4.70
2022-09-23T00:38:32.058Z,5.65
2022-09-23T00:40:58.749Z,5.63
2022-09-23T00:43:47.283Z,5.68
2022-09-23T00:46:35.504Z,6.18
2022-09-23T00:49:28.985Z,5.78
2022-09-23T00:52:06.771Z,5.50
2022-09-23T00:54:34.045Z,5.30
2022-09-23T00:57:01.623Z,5.05
2022-09-23T00:59:29.226Z,5.75
2022-09-23T01:01:57.964Z,5.68
2022-09-23T01:04:27.330Z,6.13
2022-09-23T01:06:54.100Z,5.68
2022-09-23T01:09:22.770Z,5.75
2022-09-23T01:11:57.189Z,5.85
2022-09-23T01:14:53.964Z,6.55
2022-09-23T01:17:20.697Z,5.82
2022-09-23T01:19:57.315Z,5.78
2022-09-23T01:22:47.959Z,5.68
2022-09-23T01:25:31.635Z,5.30
2022-09-23T01:28:01.123Z,5.25
2022-09-23T01:30:48.351Z,5.18
2022-09-23T01:33:43.622Z,5.63
2022-09-23T01:36:24.003Z,5.43
2022-09-23T01:39:18.986Z,5.57
2022-09-23T01:42:00.987Z,5.25
2022-09-23T01:44:48.308Z,5.22
2022-09-23T01:47:18.742Z,5.47
2022-09-23T01:49:53.344Z,4.85
2022-09-23T01:52:47.362Z,5.40
2022-09-23T01:55:23.499Z,4.75
2022-09-23T01:58:01.129Z,5.15
2022-09-23T02:00:31.934Z,4.85
2022-09-23T02:03:08.117Z,4.82
2022-09-23T02:05:41.431Z,4.35
2022-09-23T02:08:33.231Z,4.32
2022-09-23T02:11:07.845Z,4.45
2022-09-23T02:13:41.530Z,4.53
2022-09-23T02:16:24.726Z,5.03
2022-09-23T02:19:34.878Z,3.97
2022-09-23T02:22:23.815Z,3.63
2022-09-23T02:24:50.697Z,4.10
2022-09-23T02:27:18.440Z,4.40
2022-09-23T02:30:01.276Z,3.70
2022-09-23T02:32:36.390Z,3.92
2022-09-23T02:35:33.127Z,3.28
2022-09-23T02:38:21.507Z,3.60
2022-09-23T02:40:58.737Z,3.38
2022-09-23T02:43:36.113Z,4.05
2022-09-23T02:46:04.654Z,3.83
2022-09-23T02:48:41.355Z,3.90
2022-09-23T02:51:09.963Z,3.92
2022-09-23T02:53:37.400Z,3.30
2022-09-23T02:56:21.159Z,3.70
2022-09-23T02:58:49.922Z,4.38
2022-09-23T03:01:26.333Z,3.75
2022-09-23T03:04:11.757Z,4.03
2022-09-23T03:07:00.105Z,3.92
2022-09-23T03:09:33.957Z,4.10
2022-09-23T03:12:15.722Z,3.90
2022-09-23T03:14:43.116Z,3.67
2022-09-23T03:17:21.912Z,4.10
2022-09-23T03:20:01.463Z,4.00
2022-09-23T03:22:40.407Z,4.75
2022-09-23T03:25:12.100Z,4.13
2022-09-23T03:27:42.399Z,4.43
2022-09-23T03:30:10.560Z,4.13
2022-09-23T03:32:38.473Z,4.20
2022-09-23T03:35:07.410Z,4.88
2022-09-23T03:38:01.134Z,4.65
2022-09-23T03:40:35.730Z,4.43
2022-09-23T03:43:05.102Z,3.65
2022-09-23T03:45:34.033Z,3.30
2022-09-23T03:48:01.124Z,3.60
2022-09-23T03:50:28.993Z,3.65
2022-09-23T03:52:56.106Z,2.85
2022-09-23T03:55:22.852Z,3.58
2022-09-23T03:57:49.632Z,4.07
2022-09-23T04:00:16.867Z,4.28
2022-09-23T04:02:44.258Z,4.25
2022-09-23T04:05:12.937Z,3.30
2022-09-23T04:07:39.711Z,4.35
2022-09-23T04:10:07.190Z,4.20
2022-09-23T04:12:33.943Z,3.85
2022-09-23T04:15:00.716Z,3.28
2022-09-23T04:17:27.494Z,3.90
2022-09-23T04:19:54.322Z,3.55
2022-09-23T04:22:21.218Z,4.45
2022-09-23T04:24:49.079Z,6.63
2022-09-23T04:27:15.858Z,7.85
2022-09-23T04:29:42.767Z,7.07
2022-09-23T04:32:09.802Z,4.95
2022-09-23T04:34:36.559Z,4.07
2022-09-23T04:37:03.306Z,3.45
2022-09-23T04:39:30.175Z,3.95
2022-09-23T04:41:56.938Z,4.13
2022-09-23T04:44:24.470Z,4.15
2022-09-23T04:46:51.725Z,4.20
2022-09-23T04:49:18.567Z,4.15
2022-09-23T04:51:47.604Z,5.15
2022-09-23T04:54:15.128Z,3.38
2022-09-23T04:56:42.361Z,3.38
2022-09-23T04:59:09.466Z,3.85
2022-09-23T05:01:36.835Z,4.25
2022-09-23T05:04:10.238Z,2.95
2022-09-23T05:06:37.030Z,2.88
2022-09-23T05:09:08.350Z,3.80
2022-09-23T05:11:35.618Z,4.97
2022-09-23T05:14:02.573Z,2.47
2022-09-23T05:16:29.819Z,1.75
2022-09-23T05:18:57.606Z,3.05
2022-09-23T05:21:26.934Z,2.30
2022-09-23T05:23:56.567Z,4.53
2022-09-23T05:26:25.776Z,3.22
2022-09-23T05:28:54.034Z,1.90
2022-09-23T05:31:24.009Z,1.73
2022-09-23T05:33:53.598Z,2.20
2022-09-23T05:36:21.964Z,1.60
2022-09-23T05:38:50.053Z,2.70
2022-09-23T05:41:18.646Z,1.95
2022-09-23T05:43:45.378Z,1.45
2022-09-23T05:46:14.539Z,1.90
2022-09-23T05:48:42.556Z,1.60
2022-09-23T05:51:12.990Z,1.23
2022-09-23T05:53:41.680Z,1.50
2022-09-23T05:56:08.450Z,1.73
2022-09-23T05:58:35.548Z,2.00
2022-09-23T06:01:09.530Z,1.60
2022-09-23T06:03:36.715Z,1.10
2022-09-23T06:06:03.594Z,1.23
2022-09-23T06:08:30.864Z,1.20
2022-09-23T06:10:58.586Z,1.80
2022-09-23T06:13:27.493Z,2.40
2022-09-23T06:15:58.032Z,1.20
2022-09-23T06:18:24.986Z,1.25
2022-09-23T06:20:52.064Z,1.58
2022-09-23T06:23:20.278Z,1.10
2022-09-23T06:25:48.842Z,2.08
2022-09-23T06:28:15.659Z,1.20
2022-09-23T06:30:42.782Z,1.20
2022-09-23T06:33:10.137Z,1.20
2022-09-23T06:35:37.169Z,1.10
2022-09-23T06:38:05.133Z,1.10
2022-09-23T06:40:32.636Z,1.10
2022-09-23T06:43:01.059Z,1.27
2022-09-23T06:45:28.542Z,1.13
2022-09-23T06:47:57.220Z,2.75
2022-09-23T06:50:25.964Z,0.95
2022-09-23T06:52:56.625Z,1.10
2022-09-23T06:55:24.883Z,0.90
2022-09-23T06:57:51.699Z,1.08
2022-09-23T07:00:18.527Z,1.10
2022-09-23T07:02:45.811Z,0.90
2022-09-23T07:05:13.513Z,1.20
2022-09-23T07:07:40.403Z,1.10
2022-09-23T07:10:07.872Z,1.10
2022-09-23T07:12:34.778Z,1.10
2022-09-23T07:15:01.650Z,0.80
2022-09-23T07:17:28.452Z,0.50
2022-09-23T07:19:55.170Z,0.70
2022-09-23T07:22:22.506Z,0.63
2022-09-23T07:24:49.325Z,0.70
2022-09-23T07:27:19.969Z,0.77
2022-09-23T07:29:50.376Z,0.80
2022-09-23T07:32:17.484Z,0.60
2022-09-23T07:34:44.501Z,0.80
2022-09-23T07:37:11.223Z,0.75
2022-09-23T07:39:39.760Z,0.77
2022-09-23T07:42:06.838Z,0.70
2022-09-23T07:44:34.124Z,0.50
2022-09-23T07:47:01.296Z,0.52
2022-09-23T07:49:28.295Z,0.70
2022-09-23T07:51:55.163Z,0.75
2022-09-23T07:54:21.996Z,0.73
2022-09-23T07:56:48.792Z,1.00
2022-09-23T07:59:18.400Z,1.05
2022-09-23T08:01:52.655Z,0.90
2022-09-23T08:04:28.314Z,1.00
2022-09-23T08:07:00.640Z,1.20
2022-09-23T08:09:33.468Z,1.30
2022-09-23T08:12:00.546Z,1.30
2022-09-23T08:14:27.583Z,1.48
2022-09-23T08:16:54.400Z,1.23
2022-09-23T08:19:21.288Z,1.15
2022-09-23T08:21:50.468Z,1.60
2022-09-23T08:24:19.020Z,1.08
2022-09-23T08:26:47.553Z,1.10
2022-09-23T08:29:16.546Z,1.40
2022-09-23T08:31:43.779Z,1.63
2022-09-23T08:34:11.232Z,2.17
2022-09-23T08:36:38.138Z,2.13
2022-09-23T08:39:06.287Z,2.33
2022-09-23T08:41:59.200Z,2.00
2022-09-23T08:44:44.995Z,2.00
2022-09-23T08:47:43.771Z,1.83
2022-09-23T08:50:18.231Z,2.20
2022-09-23T08:53:20.750Z,2.08
2022-09-23T08:55:50.956Z,2.10
2022-09-23T08:58:48.416Z,1.80
2022-09-23T09:01:33.966Z,1.85
2022-09-23T09:04:03.321Z,2.20
2022-09-23T09:06:51.809Z,2.20
2022-09-23T09:09:25.623Z,1.98
2022-09-23T09:12:01.414Z,1.92
2022-09-23T09:14:31.056Z,1.70
2022-09-23T09:17:08.072Z,2.10
2022-09-23T09:19:37.557Z,1.70
2022-09-23T09:22:12.303Z,1.90
2022-09-23T09:24:40.292Z,1.95
2022-09-23T09:27:12.930Z,1.60
2022-09-23T09:29:44.829Z,2.00
2022-09-23T09:32:48.930Z,2.27
2022-09-23T09:35:33.349Z,2.10
2022-09-23T09:38:02.101Z,2.10
2022-09-23T09:40:29.199Z,2.00
2022-09-23T09:42:56.025Z,2.15
2022-09-23T09:45:57.765Z,2.40
2022-09-23T09:48:37.975Z,2.33
2022-09-23T09:51:23.025Z,2.22
2022-09-23T09:53:53.264Z,2.03
2022-09-23T09:56:27.352Z,2.28
2022-09-23T09:59:00.331Z,2.28
2022-09-23T10:01:30.597Z,2.50
2022-09-23T10:04:00.481Z,2.28
2022-09-23T10:06:31.173Z,3.05
2022-09-23T10:09:15.658Z,2.92
2022-09-23T10:12:01.860Z,2.75
2022-09-23T10:14:30.249Z,2.95
2022-09-23T10:17:07.027Z,2.85
2022-09-23T10:19:38.026Z,3.20
2022-09-23T10:22:23.642Z,2.97
2022-09-23T10:24:53.980Z,2.83
2022-09-23T10:27:47.008Z,2.55
2022-09-23T10:30:27.121Z,2.50
2022-09-23T10:32:57.123Z,1.77
2022-09-23T10:35:26.655Z,1.90
2022-09-23T10:37:55.796Z,2.03
2022-09-23T10:40:56.800Z,1.30
2022-09-23T10:44:01.060Z,1.20
2022-09-23T10:46:41.304Z,1.60
2022-09-23T10:49:51.227Z,1.98
2022-09-23T10:52:40.654Z,2.13
2022-09-23T10:55:35.557Z,2.50
2022-09-23T10:58:05.227Z,2.20
2022-09-23T11:00:41.036Z,1.92
2022-09-23T11:03:24.484Z,2.50
2022-09-23T11:06:00.890Z,2.22
2022-09-23T11:08:30.556Z,2.15
2022-09-23T11:11:18.570Z,1.73
2022-09-23T11:13:59.063Z,1.98
2022-09-23T11:17:04.318Z,2.05
2022-09-23T11:20:09.783Z,1.70
2022-09-23T11:23:04.980Z,2.03
2022-09-23T11:25:43.340Z,1.27
2022-09-23T11:28:31.892Z,1.70
2022-09-23T11:31:17.557Z,1.17
2022-09-23T11:33:57.705Z,1.30
2022-09-23T11:36:48.812Z,1.63
2022-09-23T11:39:21.306Z,1.77
2022-09-23T11:41:52.825Z,1.88
2022-09-23T11:44:22.475Z,1.63
2022-09-23T11:47:11.476Z,1.70
2022-09-23T11:50:16.386Z,1.88
2022-09-23T11:52:58.789Z,2.28
2022-09-23T11:55:31.705Z,2.38
2022-09-23T11:58:23.027Z,2.17
2022-09-23T12:01:01.849Z,1.92
2022-09-23T12:03:48.319Z,2.70
2022-09-23T12:06:20.707Z,1.27
2022-09-23T12:08:52.614Z,1.08
2022-09-23T12:11:34.874Z,0.75
2022-09-23T12:14:14.555Z,0.85
2022-09-23T12:16:56.059Z,0.70
2022-09-23T12:19:34.295Z,0.70
2022-09-23T12:22:19.632Z,1.00
2022-09-23T12:25:24.173Z,0.63
2022-09-23T12:27:55.463Z,1.00
2022-09-23T12:30:27.546Z,1.50
2022-09-23T12:33:27.689Z,1.55
2022-09-23T12:36:07.621Z,1.40
2022-09-23T12:38:38.420Z,1.58
2022-09-23T12:41:24.086Z,1.55
2022-09-23T12:43:58.580Z,1.88
2022-09-23T12:46:27.516Z,2.13
2022-09-23T12:48:58.161Z,1.80
2022-09-23T12:51:36.278Z,2.50
2022-09-23T12:54:06.206Z,1.88
2022-09-23T12:56:33.005Z,1.70
2022-09-23T12:59:21.262Z,1.90
2022-09-23T13:01:48.403Z,1.40
2022-09-23T13:04:50.320Z,1.40
2022-09-23T13:07:27.231Z,1.63
2022-09-23T13:10:16.872Z,1.40
2022-09-23T13:12:46.012Z,1.30
2022-09-23T13:15:35.714Z,1.38
2022-09-23T13:18:20.715Z,1.20
2022-09-23T13:20:49.169Z,1.45
2022-09-23T13:23:20.496Z,1.02
2022-09-23T13:25:48.216Z,1.10
2022-09-23T13:28:30.212Z,1.50
2022-09-23T13:30:57.988Z,1.80
2022-09-23T13:33:42.731Z,1.80
2022-09-23T13:36:18.194Z,1.90
2022-09-23T13:38:48.718Z,1.70
2022-09-23T13:41:19.349Z,1.20
2022-09-23T13:43:51.711Z,2.03
2022-09-23T13:46:21.896Z,2.15
2022-09-23T13:48:54.741Z,2.10
2022-09-23T13:51:30.204Z,1.80
2022-09-23T13:54:00.325Z,1.70
2022-09-23T13:56:33.049Z,1.75
2022-09-23T13:59:26.115Z,1.80
2022-09-23T14:02:11.041Z,2.30
2022-09-23T14:04:38.313Z,2.20
2022-09-23T14:07:08.005Z,2.40
2022-09-23T14:09:37.218Z,2.78
2022-09-23T14:12:06.679Z,2.75
2022-09-23T14:14:37.188Z,1.92
2022-09-23T14:17:06.497Z,1.70
2022-09-23T14:19:35.768Z,1.88
2022-09-23T14:22:02.776Z,2.13
2022-09-23T14:24:29.492Z,1.70
2022-09-23T14:27:08.443Z,1.90
2022-09-23T14:29:41.319Z,2.33
2022-09-23T14:32:21.125Z,2.45
2022-09-23T14:35:01.171Z,2.05
2022-09-23T14:37:46.199Z,1.85
2022-09-23T14:40:19.546Z,2.30
2022-09-23T14:42:58.722Z,2.20
2022-09-23T14:45:30.219Z,2.80
2022-09-23T14:48:00.915Z,2.92
2022-09-23T14:50:40.531Z,4.20
2022-09-23T14:53:40.661Z,4.60
2022-09-23T14:56:07.335Z,3.22
2022-09-23T14:58:57.162Z,3.47
2022-09-23T15:01:37.903Z,3.30
2022-09-23T15:04:18.443Z,3.22
2022-09-23T15:06:50.618Z,4.05
2022-09-23T15:09:25.117Z,4.82
2022-09-23T15:12:05.198Z,5.47
2022-09-23T15:14:39.466Z,5.30
2022-09-23T15:17:33.214Z,5.43
2022-09-23T15:20:03.879Z,4.63
2022-09-23T15:22:30.693Z,3.42
2022-09-23T15:25:18.489Z,3.95
2022-09-23T15:28:03.311Z,3.80
2022-09-23T15:30:31.608Z,3.80
2022-09-23T15:32:58.701Z,4.65
2022-09-23T15:35:29.063Z,5.00
2022-09-23T15:37:58.923Z,4.50
2022-09-23T15:40:31.448Z,4.40
2022-09-23T15:43:00.712Z,4.78
2022-09-23T15:45:42.990Z,5.20
2022-09-23T15:48:18.333Z,4.60
2022-09-23T15:50:48.346Z,4.82
2022-09-23T15:53:27.083Z,5.10
2022-09-23T15:55:54.281Z,5.78
2022-09-23T15:58:22.389Z,6.03
2022-09-23T16:00:55.884Z,6.07
2022-09-23T16:03:30.698Z,5.63
2022-09-23T16:06:00.636Z,5.47
2022-09-23T16:08:28.371Z,4.70
2022-09-23T16:10:56.031Z,4.65
2022-09-23T16:13:23.122Z,4.43
2022-09-23T16:15:50.069Z,4.43
2022-09-23T16:18:16.958Z,4.22
2022-09-23T16:20:45.680Z,4.43
2022-09-23T16:23:44.248Z,4.60
2022-09-23T16:26:22.372Z,4.25
2022-09-23T16:28:51.220Z,4.15
2022-09-23T16:31:18.544Z,4.65
2022-09-23T16:33:46.602Z,4.40
2022-09-23T16:36:21.214Z,4.10
2022-09-23T16:38:48.300Z,4.65
2022-09-23T16:41:15.605Z,4.70
2022-09-23T16:43:42.436Z,5.38
2022-09-23T16:46:12.400Z,6.32
2022-09-23T16:48:40.734Z,7.18
2022-09-23T16:51:26.669Z,8.90
2022-09-23T16:53:55.497Z,9.05
2022-09-23T16:56:28.467Z,9.40
2022-09-23T16:58:56.795Z,9.52
2022-09-23T17:01:44.464Z,9.02
2022-09-23T17:04:12.361Z,9.13
2022-09-23T17:06:50.223Z,8.55
2022-09-23T17:09:18.851Z,8.80
2022-09-23T17:11:48.318Z,8.05
2022-09-23T17:14:15.988Z,8.52
2022-09-23T17:16:43.484Z,8.13
2022-09-23T17:19:11.986Z,7.18
2022-09-23T17:21:39.212Z,6.63
2022-09-23T17:24:06.903Z,6.40
2022-09-23T17:26:34.297Z,5.95
2022-09-23T17:29:02.233Z,5.60
2022-09-23T17:31:29.125Z,5.07
2022-09-23T17:33:56.316Z,5.57
2022-09-23T17:36:23.269Z,5.10
2022-09-23T17:38:53.612Z,5.85
2022-09-23T17:41:21.334Z,5.53
2022-09-23T17:43:53.397Z,5.90
2022-09-23T17:46:20.244Z,6.32
2022-09-23T17:48:47.199Z,6.55
2022-09-23T17:51:16.536Z,5.72
2022-09-23T17:53:46.623Z,6.68
2022-09-23T17:56:18.760Z,6.72
2022-09-23T17:58:46.804Z,6.32
2022-09-23T18:01:24.948Z,4.75
2022-09-23T18:03:59.997Z,6.20
2022-09-23T18:06:35.630Z,6.30
2022-09-23T18:09:05.167Z,5.57
2022-09-23T18:11:46.175Z,5.80
2022-09-23T18:14:15.409Z,6.28
2022-09-23T18:16:44.288Z,6.70
2022-09-23T18:19:14.154Z,6.30
2022-09-23T18:21:44.213Z,6.30
2022-09-23T18:27:00.082Z,7.15
2022-09-23T18:29:28.247Z,8.00
2022-09-23T18:31:55.157Z,8.55
2022-09-23T18:34:22.221Z,7.93
2022-09-23T18:36:51.817Z,8.15
2022-09-23T18:39:18.815Z,7.85
2022-09-23T18:41:45.702Z,8.00
2022-09-23T18:44:12.546Z,8.82
2022-09-23T18:46:39.471Z,8.88
2022-09-23T18:49:25.324Z,8.35
2022-09-23T18:51:55.902Z,7.18
2022-09-23T18:54:26.674Z,7.68
2022-09-23T18:56:55.051Z,7.50
2022-09-23T18:59:25.331Z,7.55
2022-09-23T19:01:57.642Z,9.77
2022-09-23T19:04:26.632Z,8.80
2022-09-23T19:06:56.446Z,9.32
2022-09-23T19:09:24.477Z,7.90
2022-09-23T19:11:52.379Z,10.10
2022-09-23T19:14:19.845Z,9.52
2022-09-23T19:16:49.072Z,9.07
2022-09-23T19:19:16.159Z,7.15
2022-09-23T19:21:43.315Z,7.85
2022-09-23T19:24:14.495Z,8.45
2022-09-23T19:26:42.527Z,9.23
2022-09-23T19:29:15.524Z,9.73
2022-09-23T19:31:43.462Z,9.43
2022-09-23T19:34:16.311Z,9.90
2022-09-23T19:36:45.357Z,9.98
2022-09-23T19:39:14.888Z,10.63
2022-09-23T19:41:41.764Z,10.75
2022-09-23T19:44:09.120Z,10.25
2022-09-23T19:46:42.857Z,10.52
2022-09-23T19:49:11.206Z,9.50
2022-09-23T19:51:39.068Z,8.75
2022-09-23T19:54:07.539Z,8.43
2022-09-23T19:56:34.823Z,8.18
2022-09-23T19:59:03.165Z,7.80
2022-09-23T20:01:32.114Z,7.70
2022-09-23T20:03:59.450Z,7.75
2022-09-23T20:06:30.431Z,7.25
2022-09-23T20:08:59.579Z,7.40
2022-09-23T20:11:28.509Z,7.03
2022-09-23T20:14:01.797Z,6.97
2022-09-23T20:16:32.489Z,7.32
2022-09-23T20:19:00.710Z,6.40
2022-09-23T20:21:29.365Z,6.00
2022-09-23T20:23:57.808Z,6.43
2022-09-23T20:26:43.074Z,7.00
2022-09-23T20:29:10.807Z,6.53
2022-09-23T20:31:37.879Z,7.00
2022-09-23T20:34:07.088Z,7.60
2022-09-23T20:36:35.104Z,6.88
2022-09-23T20:39:05.778Z,7.13
2022-09-23T20:41:37.298Z,6.82
2022-09-23T20:44:07.079Z,7.03
2022-09-23T20:46:34.347Z,7.32
2022-09-23T20:49:01.927Z,6.80
2022-09-23T20:51:28.890Z,6.65
2022-09-23T20:53:55.661Z,7.15
2022-09-23T20:56:23.414Z,8.88
2022-09-23T20:58:52.510Z,7.97
2022-09-23T21:01:20.110Z,8.50
2022-09-23T21:03:49.276Z,9.57
2022-09-23T21:06:17.376Z,7.60
2022-09-23T21:08:44.736Z,8.13
2022-09-23T21:11:15.037Z,8.02
2022-09-23T21:13:47.194Z,7.55
2022-09-23T21:16:16.184Z,7.25
2022-09-23T21:18:44.198Z,7.82
2022-09-23T21:21:12.158Z,7.10
2022-09-23T21:23:39.632Z,7.40
2022-09-23T21:26:08.894Z,7.75
2022-09-23T21:28:38.652Z,7.72
2022-09-23T21:31:14.912Z,6.70
2022-09-23T21:33:41.677Z,6.38
2022-09-23T21:36:09.893Z,7.63
2022-09-23T21:38:37.418Z,8.35
2022-09-23T21:41:07.318Z,7.38
2022-09-23T21:43:37.352Z,7.65
2022-09-23T21:46:09.170Z,6.85
2022-09-23T21:48:37.773Z,6.93
2022-09-23T21:51:07.245Z,7.82
2022-09-23T21:53:36.400Z,8.15
2022-09-23T21:56:13.320Z,8.63
2022-09-23T21:58:43.266Z,8.20
2022-09-23T22:01:15.298Z,7.65
2022-09-23T22:03:43.543Z,7.70
2022-09-23T22:06:21.556Z,7.32
2022-09-23T22:08:51.183Z,7.32
2022-09-23T22:11:42.132Z,6.70
2022-09-23T22:14:11.991Z,6.53
2022-09-23T22:16:39.575Z,6.60
2022-09-23T22:19:07.162Z,7.22
2022-09-23T22:21:36.750Z,7.07
2022-09-23T22:24:05.715Z,6.90
2022-09-23T22:26:38.331Z,7.38
2022-09-23T22:29:25.811Z,6.63
2022-09-23T22:32:11.020Z,6.88
2022-09-23T22:34:55.643Z,7.00
2022-09-23T22:37:28.499Z,6.72
2022-09-23T22:39:55.220Z,7.07
2022-09-23T22:42:22.438Z,7.00
2022-09-23T22:44:49.996Z,7.30
2022-09-23T22:47:17.962Z,7.30
2022-09-23T22:49:46.248Z,7.53
2022-09-23T22:52:14.983Z,7.30
2022-09-23T22:54:42.140Z,7.25
2022-09-23T22:57:09.898Z,6.82
2022-09-23T22:59:37.619Z,6.88
2022-09-23T23:02:05.214Z,6.72
2022-09-23T23:04:32.315Z,6.20
2022-09-23T23:06:59.316Z,6.78
2022-09-23T23:09:26.056Z,5.90
2022-09-23T23:11:53.023Z,5.65
2022-09-23T23:14:19.950Z,6.32
2022-09-23T23:16:47.550Z,6.07
2022-09-23T23:19:17.268Z,6.30
2022-09-23T23:21:45.496Z,6.10
2022-09-23T23:24:17.831Z,5.90
2022-09-23T23:26:45.637Z,5.47
2022-09-23T23:29:14.552Z,5.72
2022-09-23T23:31:42.139Z,5.80
2022-09-23T23:34:12.885Z,6.03
2022-09-23T23:36:41.586Z,6.28
2022-09-23T23:39:08.572Z,5.85
2022-09-23T23:41:35.669Z,5.57
2022-09-23T23:44:02.776Z,6.82
2022-09-23T23:46:31.112Z,6.68
2022-09-23T23:48:58.811Z,6.28
2022-09-23T23:51:26.846Z,5.82
2022-09-23T23:53:54.564Z,6.55
2022-09-23T23:56:24.360Z,5.75
2022-09-23T23:58:59.004Z,5.85
